sensor_id;sensor_type;location;lat;lon;timestamp;P1;durP1;ratioP1;P2;durP2;ratioP2
25922;SDS011;13725;51.170;4.442;2024-03-17T00:01:02;7.13;;;4.90;;
25922;SDS011;13725;51.170;4.442;2024-03-17T00:03:28;8.25;;;4.97;;
25922;SDS011;13725;51.170;4.442;2024-03-17T00:05:56;9.98;;;4.97;;
25922;SDS011;13725;51.170;4.442;2024-03-17T00:08:22;10.30;;;4.55;;
25922;SDS011;13725;51.170;4.442;2024-03-17T00:10:51;8.30;;;4.82;;
25922;SDS011;13725;51.170;4.442;2024-03-17T00:13:18;9.55;;;4.53;;
25922;SDS011;13725;51.170;4.442;2024-03-17T00:15:44;7.30;;;4.25;;
25922;SDS011;13725;51.170;4.442;2024-03-17T00:18:10;7.72;;;4.20;;
25922;SDS011;13725;51.170;4.442;2024-03-17T00:20:36;8.50;;;4.78;;
25922;SDS011;13725;51.170;4.442;2024-03-17T00:23:03;11.32;;;5.22;;
25922;SDS011;13725;51.170;4.442;2024-03-17T00:25:32;6.97;;;4.25;;
25922;SDS011;13725;51.170;4.442;2024-03-17T00:27:59;9.88;;;4.50;;
25922;SDS011;13725;51.170;4.442;2024-03-17T00:30:25;9.85;;;4.38;;
25922;SDS011;13725;51.170;4.442;2024-03-17T00:32:51;10.13;;;4.40;;
25922;SDS011;13725;51.170;4.442;2024-03-17T00:35:17;10.57;;;4.50;;
25922;SDS011;13725;51.170;4.442;2024-03-17T00:37:46;7.82;;;4.05;;
25922;SDS011;13725;51.170;4.442;2024-03-17T00:40:13;11.15;;;4.97;;
25922;SDS011;13725;51.170;4.442;2024-03-17T00:42:39;9.43;;;4.80;;
25922;SDS011;13725;51.170;4.442;2024-03-17T00:45:06;7.50;;;4.72;;
25922;SDS011;13725;51.170;4.442;2024-03-17T00:47:32;11.90;;;5.50;;
25922;SDS011;13725;51.170;4.442;2024-03-17T00:49:58;9.05;;;5.53;;
25922;SDS011;13725;51.170;4.442;2024-03-17T00:52:24;11.75;;;4.97;;
25922;SDS011;13725;51.170;4.442;2024-03-17T00:54:49;9.80;;;5.03;;
25922;SDS011;13725;51.170;4.442;2024-03-17T00:57:15;8.15;;;4.45;;
25922;SDS011;13725;51.170;4.442;2024-03-17T00:59:41;10.40;;;4.90;;
25922;SDS011;13725;51.170;4.442;2024-03-17T01:02:11;9.45;;;5.18;;
25922;SDS011;13725;51.170;4.442;2024-03-17T01:04:41;13.32;;;4.95;;
25922;SDS011;13725;51.170;4.442;2024-03-17T01:07:08;7.95;;;4.72;;
25922;SDS011;13725;51.170;4.442;2024-03-17T01:09:37;8.48;;;4.85;;
25922;SDS011;13725;51.170;4.442;2024-03-17T01:12:03;9.60;;;5.00;;
25922;SDS011;13725;51.170;4.442;2024-03-17T01:14:29;10.63;;;5.55;;
25922;SDS011;13725;51.170;4.442;2024-03-17T01:16:56;11.88;;;5.10;;
25922;SDS011;13725;51.170;4.442;2024-03-17T01:19:22;11.35;;;5.07;;
25922;SDS011;13725;51.170;4.442;2024-03-17T01:21:48;9.55;;;5.40;;
25922;SDS011;13725;51.170;4.442;2024-03-17T01:24:14;12.77;;;5.45;;
25922;SDS011;13725;51.170;4.442;2024-03-17T01:26:40;11.25;;;5.63;;
25922;SDS011;13725;51.170;4.442;2024-03-17T01:29:05;9.02;;;4.97;;
25922;SDS011;13725;51.170;4.442;2024-03-17T01:31:34;11.27;;;5.40;;
25922;SDS011;13725;51.170;4.442;2024-03-17T01:34:00;12.50;;;5.50;;
25922;SDS011;13725;51.170;4.442;2024-03-17T01:36:26;10.10;;;5.80;;
25922;SDS011;13725;51.170;4.442;2024-03-17T01:38:52;11.40;;;5.10;;
25922;SDS011;13725;51.170;4.442;2024-03-17T01:41:18;11.45;;;5.60;;
25922;SDS011;13725;51.170;4.442;2024-03-17T01:43:43;10.85;;;5.15;;
25922;SDS011;13725;51.170;4.442;2024-03-17T01:46:13;10.52;;;5.72;;
25922;SDS011;13725;51.170;4.442;2024-03-17T01:48:40;10.88;;;5.00;;
25922;SDS011;13725;51.170;4.442;2024-03-17T01:51:07;10.73;;;5.82;;
25922;SDS011;13725;51.170;4.442;2024-03-17T01:53:36;8.98;;;5.95;;
25922;SDS011;13725;51.170;4.442;2024-03-17T01:56:04;11.73;;;6.13;;
25922;SDS011;13725;51.170;4.442;2024-03-17T01:58:30;16.35;;;6.45;;
25922;SDS011;13725;51.170;4.442;2024-03-17T02:00:57;14.00;;;5.68;;
25922;SDS011;13725;51.170;4.442;2024-03-17T02:03:23;10.18;;;5.75;;
25922;SDS011;13725;51.170;4.442;2024-03-17T02:05:49;12.32;;;6.53;;
25922;SDS011;13725;51.170;4.442;2024-03-17T02:08:15;10.68;;;6.30;;
25922;SDS011;13725;51.170;4.442;2024-03-17T02:10:41;11.65;;;6.05;;
25922;SDS011;13725;51.170;4.442;2024-03-17T02:13:07;10.32;;;6.00;;
25922;SDS011;13725;51.170;4.442;2024-03-17T02:15:32;14.57;;;6.22;;
25922;SDS011;13725;51.170;4.442;2024-03-17T02:17:59;10.23;;;5.38;;
25922;SDS011;13725;51.170;4.442;2024-03-17T02:20:24;10.10;;;6.13;;
25922;SDS011;13725;51.170;4.442;2024-03-17T02:23:11;11.75;;;6.05;;
25922;SDS011;13725;51.170;4.442;2024-03-17T02:25:37;12.68;;;5.95;;
25922;SDS011;13725;51.170;4.442;2024-03-17T02:28:03;9.90;;;5.97;;
25922;SDS011;13725;51.170;4.442;2024-03-17T02:30:29;9.10;;;6.05;;
25922;SDS011;13725;51.170;4.442;2024-03-17T02:32:56;11.52;;;6.57;;
25922;SDS011;13725;51.170;4.442;2024-03-17T02:35:22;9.32;;;6.65;;
25922;SDS011;13725;51.170;4.442;2024-03-17T02:37:48;11.25;;;6.60;;
25922;SDS011;13725;51.170;4.442;2024-03-17T02:40:14;11.80;;;6.00;;
25922;SDS011;13725;51.170;4.442;2024-03-17T02:42:41;13.68;;;6.70;;
25922;SDS011;13725;51.170;4.442;2024-03-17T02:45:10;14.15;;;6.70;;
25922;SDS011;13725;51.170;4.442;2024-03-17T02:47:39;14.25;;;6.50;;
25922;SDS011;13725;51.170;4.442;2024-03-17T02:50:06;12.23;;;6.13;;
25922;SDS011;13725;51.170;4.442;2024-03-17T02:52:33;10.65;;;6.32;;
25922;SDS011;13725;51.170;4.442;2024-03-17T02:54:59;15.27;;;6.00;;
25922;SDS011;13725;51.170;4.442;2024-03-17T02:57:25;10.98;;;5.88;;
25922;SDS011;13725;51.170;4.442;2024-03-17T02:59:58;12.25;;;6.50;;
25922;SDS011;13725;51.170;4.442;2024-03-17T03:02:24;11.30;;;6.22;;
25922;SDS011;13725;51.170;4.442;2024-03-17T03:04:50;12.70;;;7.28;;
25922;SDS011;13725;51.170;4.442;2024-03-17T03:07:16;14.35;;;6.80;;
25922;SDS011;13725;51.170;4.442;2024-03-17T03:09:41;10.75;;;6.70;;
25922;SDS011;13725;51.170;4.442;2024-03-17T03:12:07;14.88;;;6.50;;
25922;SDS011;13725;51.170;4.442;2024-03-17T03:14:33;12.65;;;6.38;;
25922;SDS011;13725;51.170;4.442;2024-03-17T03:16:59;15.95;;;6.85;;
25922;SDS011;13725;51.170;4.442;2024-03-17T03:19:26;10.18;;;6.40;;
25922;SDS011;13725;51.170;4.442;2024-03-17T03:21:52;10.88;;;6.78;;
25922;SDS011;13725;51.170;4.442;2024-03-17T03:24:18;10.93;;;6.55;;
25922;SDS011;13725;51.170;4.442;2024-03-17T03:26:43;13.50;;;7.30;;
25922;SDS011;13725;51.170;4.442;2024-03-17T03:29:10;13.60;;;7.03;;
25922;SDS011;13725;51.170;4.442;2024-03-17T03:31:36;15.95;;;7.35;;
25922;SDS011;13725;51.170;4.442;2024-03-17T03:34:04;13.23;;;7.50;;
25922;SDS011;13725;51.170;4.442;2024-03-17T03:36:32;12.88;;;7.18;;
25922;SDS011;13725;51.170;4.442;2024-03-17T03:38:59;13.60;;;7.72;;
25922;SDS011;13725;51.170;4.442;2024-03-17T03:41:25;14.20;;;8.38;;
25922;SDS011;13725;51.170;4.442;2024-03-17T03:43:51;15.32;;;8.10;;
25922;SDS011;13725;51.170;4.442;2024-03-17T03:46:17;15.25;;;8.88;;
25922;SDS011;13725;51.170;4.442;2024-03-17T03:48:43;16.65;;;8.10;;
25922;SDS011;13725;51.170;4.442;2024-03-17T03:51:09;13.65;;;8.25;;
25922;SDS011;13725;51.170;4.442;2024-03-17T03:53:36;13.88;;;8.25;;
25922;SDS011;13725;51.170;4.442;2024-03-17T03:56:03;15.93;;;8.50;;
25922;SDS011;13725;51.170;4.442;2024-03-17T03:58:33;16.73;;;9.02;;
25922;SDS011;13725;51.170;4.442;2024-03-17T04:01:00;18.02;;;8.95;;
25922;SDS011;13725;51.170;4.442;2024-03-17T04:03:31;17.95;;;9.30;;
25922;SDS011;13725;51.170;4.442;2024-03-17T04:06:08;17.92;;;9.40;;
25922;SDS011;13725;51.170;4.442;2024-03-17T04:08:36;19.90;;;9.52;;
25922;SDS011;13725;51.170;4.442;2024-03-17T04:11:05;17.60;;;9.43;;
25922;SDS011;13725;51.170;4.442;2024-03-17T04:13:30;15.65;;;7.60;;
25922;SDS011;13725;51.170;4.442;2024-03-17T04:15:59;17.92;;;9.30;;
25922;SDS011;13725;51.170;4.442;2024-03-17T04:18:26;16.90;;;8.82;;
25922;SDS011;13725;51.170;4.442;2024-03-17T04:20:55;19.13;;;9.75;;
25922;SDS011;13725;51.170;4.442;2024-03-17T04:23:22;16.92;;;9.43;;
25922;SDS011;13725;51.170;4.442;2024-03-17T04:25:50;18.77;;;9.65;;
25922;SDS011;13725;51.170;4.442;2024-03-17T04:28:16;16.60;;;9.32;;
25922;SDS011;13725;51.170;4.442;2024-03-17T04:30:42;17.08;;;9.52;;
25922;SDS011;13725;51.170;4.442;2024-03-17T04:33:11;18.55;;;9.93;;
25922;SDS011;13725;51.170;4.442;2024-03-17T04:35:37;17.80;;;9.60;;
25922;SDS011;13725;51.170;4.442;2024-03-17T04:38:04;17.25;;;9.60;;
25922;SDS011;13725;51.170;4.442;2024-03-17T04:40:31;21.17;;;9.98;;
25922;SDS011;13725;51.170;4.442;2024-03-17T04:43:00;24.27;;;10.10;;
25922;SDS011;13725;51.170;4.442;2024-03-17T04:45:26;19.50;;;10.35;;
25922;SDS011;13725;51.170;4.442;2024-03-17T04:47:52;19.75;;;10.77;;
25922;SDS011;13725;51.170;4.442;2024-03-17T04:50:18;22.13;;;9.73;;
25922;SDS011;13725;51.170;4.442;2024-03-17T04:52:44;23.08;;;10.55;;
25922;SDS011;13725;51.170;4.442;2024-03-17T04:55:09;21.88;;;9.98;;
25922;SDS011;13725;51.170;4.442;2024-03-17T04:57:35;19.42;;;10.40;;
25922;SDS011;13725;51.170;4.442;2024-03-17T05:00:02;29.83;;;10.57;;
25922;SDS011;13725;51.170;4.442;2024-03-17T05:02:32;20.85;;;10.40;;
25922;SDS011;13725;51.170;4.442;2024-03-17T05:04:58;20.25;;;10.65;;
25922;SDS011;13725;51.170;4.442;2024-03-17T05:07:24;21.55;;;9.25;;
25922;SDS011;13725;51.170;4.442;2024-03-17T05:09:49;20.42;;;10.25;;
25922;SDS011;13725;51.170;4.442;2024-03-17T05:12:15;15.60;;;9.57;;
25922;SDS011;13725;51.170;4.442;2024-03-17T05:14:42;17.02;;;8.85;;
25922;SDS011;13725;51.170;4.442;2024-03-17T05:17:07;15.00;;;9.13;;
25922;SDS011;13725;51.170;4.442;2024-03-17T05:19:33;19.90;;;9.65;;
25922;SDS011;13725;51.170;4.442;2024-03-17T05:21:59;16.70;;;9.23;;
25922;SDS011;13725;51.170;4.442;2024-03-17T05:24:25;17.10;;;9.10;;
25922;SDS011;13725;51.170;4.442;2024-03-17T05:26:51;17.10;;;9.38;;
25922;SDS011;13725;51.170;4.442;2024-03-17T05:29:17;15.73;;;9.07;;
25922;SDS011;13725;51.170;4.442;2024-03-17T05:31:42;16.15;;;8.75;;
25922;SDS011;13725;51.170;4.442;2024-03-17T05:34:09;17.80;;;9.02;;
25922;SDS011;13725;51.170;4.442;2024-03-17T05:36:36;15.55;;;8.82;;
25922;SDS011;13725;51.170;4.442;2024-03-17T05:39:02;17.60;;;8.93;;
25922;SDS011;13725;51.170;4.442;2024-03-17T05:41:28;16.30;;;9.27;;
25922;SDS011;13725;51.170;4.442;2024-03-17T05:43:54;18.70;;;8.73;;
25922;SDS011;13725;51.170;4.442;2024-03-17T05:46:23;16.30;;;9.43;;
25922;SDS011;13725;51.170;4.442;2024-03-17T05:48:51;16.25;;;8.60;;
25922;SDS011;13725;51.170;4.442;2024-03-17T05:51:16;16.20;;;8.77;;
25922;SDS011;13725;51.170;4.442;2024-03-17T05:53:42;18.83;;;8.95;;
25922;SDS011;13725;51.170;4.442;2024-03-17T05:56:09;18.02;;;8.90;;
25922;SDS011;13725;51.170;4.442;2024-03-17T05:58:36;18.42;;;8.40;;
25922;SDS011;13725;51.170;4.442;2024-03-17T06:01:02;15.15;;;8.77;;
25922;SDS011;13725;51.170;4.442;2024-03-17T06:03:29;18.02;;;8.93;;
25922;SDS011;13725;51.170;4.442;2024-03-17T06:05:55;17.55;;;8.20;;
25922;SDS011;13725;51.170;4.442;2024-03-17T06:08:23;19.50;;;8.30;;
25922;SDS011;13725;51.170;4.442;2024-03-17T06:10:49;17.27;;;9.27;;
25922;SDS011;13725;51.170;4.442;2024-03-17T06:13:15;15.70;;;8.27;;
25922;SDS011;13725;51.170;4.442;2024-03-17T06:15:42;16.30;;;8.40;;
25922;SDS011;13725;51.170;4.442;2024-03-17T06:18:10;19.42;;;8.82;;
25922;SDS011;13725;51.170;4.442;2024-03-17T06:20:42;16.83;;;8.82;;
25922;SDS011;13725;51.170;4.442;2024-03-17T06:23:12;17.85;;;9.93;;
25922;SDS011;13725;51.170;4.442;2024-03-17T06:25:42;19.25;;;8.15;;
25922;SDS011;13725;51.170;4.442;2024-03-17T06:28:12;14.23;;;8.07;;
25922;SDS011;13725;51.170;4.442;2024-03-17T06:30:45;15.05;;;8.38;;
25922;SDS011;13725;51.170;4.442;2024-03-17T06:33:32;15.82;;;7.13;;
25922;SDS011;13725;51.170;4.442;2024-03-17T06:36:01;18.42;;;8.13;;
25922;SDS011;13725;51.170;4.442;2024-03-17T06:38:29;17.60;;;7.55;;
25922;SDS011;13725;51.170;4.442;2024-03-17T06:40:55;19.85;;;8.48;;
25922;SDS011;13725;51.170;4.442;2024-03-17T06:43:21;12.40;;;7.72;;
25922;SDS011;13725;51.170;4.442;2024-03-17T06:45:56;11.48;;;7.60;;
25922;SDS011;13725;51.170;4.442;2024-03-17T06:48:23;16.30;;;8.10;;
25922;SDS011;13725;51.170;4.442;2024-03-17T06:50:50;14.10;;;7.22;;
25922;SDS011;13725;51.170;4.442;2024-03-17T06:53:20;13.45;;;7.20;;
25922;SDS011;13725;51.170;4.442;2024-03-17T06:55:56;17.48;;;8.05;;
25922;SDS011;13725;51.170;4.442;2024-03-17T06:58:23;14.73;;;8.00;;
25922;SDS011;13725;51.170;4.442;2024-03-17T07:01:01;12.43;;;7.15;;
25922;SDS011;13725;51.170;4.442;2024-03-17T07:03:30;18.15;;;7.18;;
25922;SDS011;13725;51.170;4.442;2024-03-17T07:05:58;11.90;;;7.15;;
25922;SDS011;13725;51.170;4.442;2024-03-17T07:08:27;19.55;;;7.95;;
25922;SDS011;13725;51.170;4.442;2024-03-17T07:11:02;15.57;;;7.03;;
25922;SDS011;13725;51.170;4.442;2024-03-17T07:13:33;16.45;;;7.55;;
25922;SDS011;13725;51.170;4.442;2024-03-17T07:16:00;19.08;;;8.20;;
25922;SDS011;13725;51.170;4.442;2024-03-17T07:18:27;12.50;;;7.20;;
25922;SDS011;13725;51.170;4.442;2024-03-17T07:20:57;12.38;;;7.25;;
25922;SDS011;13725;51.170;4.442;2024-03-17T07:23:24;13.52;;;7.63;;
25922;SDS011;13725;51.170;4.442;2024-03-17T07:25:53;15.32;;;7.70;;
25922;SDS011;13725;51.170;4.442;2024-03-17T07:28:24;21.35;;;7.63;;
25922;SDS011;13725;51.170;4.442;2024-03-17T07:30:57;13.63;;;7.88;;
25922;SDS011;13725;51.170;4.442;2024-03-17T07:33:23;13.35;;;7.82;;
25922;SDS011;13725;51.170;4.442;2024-03-17T07:35:56;13.02;;;7.13;;
25922;SDS011;13725;51.170;4.442;2024-03-17T07:38:25;16.95;;;7.40;;
25922;SDS011;13725;51.170;4.442;2024-03-17T07:40:56;14.38;;;6.78;;
25922;SDS011;13725;51.170;4.442;2024-03-17T07:43:26;11.98;;;6.95;;
25922;SDS011;13725;51.170;4.442;2024-03-17T07:45:56;13.48;;;7.47;;
25922;SDS011;13725;51.170;4.442;2024-03-17T07:48:33;14.02;;;6.90;;
25922;SDS011;13725;51.170;4.442;2024-03-17T07:53:31;12.82;;;6.90;;
25922;SDS011;13725;51.170;4.442;2024-03-17T07:55:58;12.77;;;7.07;;
25922;SDS011;13725;51.170;4.442;2024-03-17T07:58:25;13.68;;;7.65;;
25922;SDS011;13725;51.170;4.442;2024-03-17T08:00:52;14.13;;;7.25;;
25922;SDS011;13725;51.170;4.442;2024-03-17T08:03:18;13.40;;;7.10;;
25922;SDS011;13725;51.170;4.442;2024-03-17T08:05:48;15.15;;;6.90;;
25922;SDS011;13725;51.170;4.442;2024-03-17T08:08:15;13.88;;;7.30;;
25922;SDS011;13725;51.170;4.442;2024-03-17T08:10:41;13.38;;;6.80;;
25922;SDS011;13725;51.170;4.442;2024-03-17T08:13:07;10.73;;;6.43;;
25922;SDS011;13725;51.170;4.442;2024-03-17T08:15:34;15.02;;;6.40;;
25922;SDS011;13725;51.170;4.442;2024-03-17T08:18:00;10.85;;;6.25;;
25922;SDS011;13725;51.170;4.442;2024-03-17T08:20:26;14.63;;;6.18;;
25922;SDS011;13725;51.170;4.442;2024-03-17T08:22:51;14.30;;;6.63;;
25922;SDS011;13725;51.170;4.442;2024-03-17T08:25:17;13.45;;;6.25;;
25922;SDS011;13725;51.170;4.442;2024-03-17T08:27:43;9.80;;;6.63;;
25922;SDS011;13725;51.170;4.442;2024-03-17T08:30:09;9.65;;;6.13;;
25922;SDS011;13725;51.170;4.442;2024-03-17T08:32:35;13.13;;;6.20;;
25922;SDS011;13725;51.170;4.442;2024-03-17T08:35:01;10.00;;;6.03;;
25922;SDS011;13725;51.170;4.442;2024-03-17T08:37:27;9.80;;;5.47;;
25922;SDS011;13725;51.170;4.442;2024-03-17T08:39:52;11.00;;;6.10;;
25922;SDS011;13725;51.170;4.442;2024-03-17T08:42:18;10.23;;;6.05;;
25922;SDS011;13725;51.170;4.442;2024-03-17T08:44:47;12.38;;;5.50;;
25922;SDS011;13725;51.170;4.442;2024-03-17T08:47:12;11.95;;;5.82;;
25922;SDS011;13725;51.170;4.442;2024-03-17T08:49:38;12.70;;;5.85;;
25922;SDS011;13725;51.170;4.442;2024-03-17T08:52:04;10.43;;;5.53;;
25922;SDS011;13725;51.170;4.442;2024-03-17T08:54:30;11.75;;;5.85;;
25922;SDS011;13725;51.170;4.442;2024-03-17T08:56:56;10.20;;;5.63;;
25922;SDS011;13725;51.170;4.442;2024-03-17T08:59:21;10.10;;;5.60;;
25922;SDS011;13725;51.170;4.442;2024-03-17T09:01:47;10.07;;;5.05;;
25922;SDS011;13725;51.170;4.442;2024-03-17T09:04:13;7.25;;;4.97;;
25922;SDS011;13725;51.170;4.442;2024-03-17T09:06:38;9.27;;;5.10;;
25922;SDS011;13725;51.170;4.442;2024-03-17T09:09:06;12.20;;;5.07;;
25922;SDS011;13725;51.170;4.442;2024-03-17T09:11:33;8.70;;;4.88;;
25922;SDS011;13725;51.170;4.442;2024-03-17T09:13:58;8.48;;;4.75;;
25922;SDS011;13725;51.170;4.442;2024-03-17T09:16:24;10.30;;;5.40;;
25922;SDS011;13725;51.170;4.442;2024-03-17T09:18:50;7.65;;;4.63;;
25922;SDS011;13725;51.170;4.442;2024-03-17T09:21:16;7.82;;;4.20;;
25922;SDS011;13725;51.170;4.442;2024-03-17T09:23:43;13.15;;;5.00;;
25922;SDS011;13725;51.170;4.442;2024-03-17T09:26:09;10.10;;;4.22;;
25922;SDS011;13725;51.170;4.442;2024-03-17T09:28:41;9.67;;;4.40;;
25922;SDS011;13725;51.170;4.442;2024-03-17T09:31:07;9.15;;;4.30;;
25922;SDS011;13725;51.170;4.442;2024-03-17T09:33:33;9.57;;;4.28;;
25922;SDS011;13725;51.170;4.442;2024-03-17T09:36:03;10.75;;;4.35;;
25922;SDS011;13725;51.170;4.442;2024-03-17T09:38:31;5.43;;;3.88;;
25922;SDS011;13725;51.170;4.442;2024-03-17T09:40:58;7.47;;;3.70;;
25922;SDS011;13725;51.170;4.442;2024-03-17T09:43:34;6.35;;;3.40;;
25922;SDS011;13725;51.170;4.442;2024-03-17T09:46:03;10.95;;;3.78;;
25922;SDS011;13725;51.170;4.442;2024-03-17T09:48:30;10.27;;;3.88;;
25922;SDS011;13725;51.170;4.442;2024-03-17T09:50:57;9.07;;;3.35;;
25922;SDS011;13725;51.170;4.442;2024-03-17T09:53:25;7.88;;;3.65;;
25922;SDS011;13725;51.170;4.442;2024-03-17T09:55:58;8.00;;;3.80;;
25922;SDS011;13725;51.170;4.442;2024-03-17T09:58:26;4.82;;;3.13;;
25922;SDS011;13725;51.170;4.442;2024-03-17T10:00:52;10.13;;;3.67;;
25922;SDS011;13725;51.170;4.442;2024-03-17T10:03:51;10.35;;;3.30;;
25922;SDS011;13725;51.170;4.442;2024-03-17T10:06:13;7.30;;;3.00;;
25922;SDS011;13725;51.170;4.442;2024-03-17T10:08:41;5.10;;;3.15;;
25922;SDS011;13725;51.170;4.442;2024-03-17T10:11:14;12.68;;;4.10;;
25922;SDS011;13725;51.170;4.442;2024-03-17T10:13:42;6.32;;;2.47;;
25922;SDS011;13725;51.170;4.442;2024-03-17T10:16:20;5.50;;;2.55;;
25922;SDS011;13725;51.170;4.442;2024-03-17T10:18:49;5.22;;;2.90;;
25922;SDS011;13725;51.170;4.442;2024-03-17T10:21:25;10.52;;;3.08;;
25922;SDS011;13725;51.170;4.442;2024-03-17T10:26:54;9.43;;;2.70;;
25922;SDS011;13725;51.170;4.442;2024-03-17T10:31:53;10.88;;;2.85;;
25922;SDS011;13725;51.170;4.442;2024-03-17T10:34:21;16.83;;;3.45;;
25922;SDS011;13725;51.170;4.442;2024-03-17T10:37:05;5.55;;;2.20;;
25922;SDS011;13725;51.170;4.442;2024-03-17T10:39:52;6.30;;;2.35;;
25922;SDS011;13725;51.170;4.442;2024-03-17T10:42:28;10.77;;;2.72;;
25922;SDS011;13725;51.170;4.442;2024-03-17T10:44:56;6.55;;;2.60;;
25922;SDS011;13725;51.170;4.442;2024-03-17T10:47:24;5.05;;;2.42;;
25922;SDS011;13725;51.170;4.442;2024-03-17T10:49:51;5.32;;;2.95;;
25922;SDS011;13725;51.170;4.442;2024-03-17T10:52:19;5.80;;;2.67;;
25922;SDS011;13725;51.170;4.442;2024-03-17T10:54:49;6.30;;;2.70;;
25922;SDS011;13725;51.170;4.442;2024-03-17T10:59:46;6.50;;;2.50;;
25922;SDS011;13725;51.170;4.442;2024-03-17T11:04:51;6.78;;;2.63;;
25922;SDS011;13725;51.170;4.442;2024-03-17T11:07:18;11.77;;;2.95;;
25922;SDS011;13725;51.170;4.442;2024-03-17T11:09:45;8.55;;;2.85;;
25922;SDS011;13725;51.170;4.442;2024-03-17T11:17:55;10.40;;;2.97;;
25922;SDS011;13725;51.170;4.442;2024-03-17T11:21:02;6.80;;;2.92;;
25922;SDS011;13725;51.170;4.442;2024-03-17T11:23:59;7.85;;;2.83;;
25922;SDS011;13725;51.170;4.442;2024-03-17T11:26:27;8.00;;;2.88;;
25922;SDS011;13725;51.170;4.442;2024-03-17T11:29:02;8.10;;;2.65;;
25922;SDS011;13725;51.170;4.442;2024-03-17T11:31:42;8.23;;;3.00;;
25922;SDS011;13725;51.170;4.442;2024-03-17T11:34:29;4.30;;;2.42;;
25922;SDS011;13725;51.170;4.442;2024-03-17T11:37:00;8.10;;;2.63;;
25922;SDS011;13725;51.170;4.442;2024-03-17T11:43:00;10.70;;;2.67;;
25922;SDS011;13725;51.170;4.442;2024-03-17T11:45:26;11.25;;;2.88;;
25922;SDS011;13725;51.170;4.442;2024-03-17T11:47:52;12.57;;;2.50;;
25922;SDS011;13725;51.170;4.442;2024-03-17T11:50:18;7.43;;;2.60;;
25922;SDS011;13725;51.170;4.442;2024-03-17T11:52:44;8.45;;;2.55;;
25922;SDS011;13725;51.170;4.442;2024-03-17T11:55:17;6.60;;;2.22;;
25922;SDS011;13725;51.170;4.442;2024-03-17T11:57:43;6.53;;;2.70;;
25922;SDS011;13725;51.170;4.442;2024-03-17T12:00:19;5.50;;;1.80;;
25922;SDS011;13725;51.170;4.442;2024-03-17T12:02:48;8.32;;;2.35;;
25922;SDS011;13725;51.170;4.442;2024-03-17T12:05:14;6.85;;;2.72;;
25922;SDS011;13725;51.170;4.442;2024-03-17T12:07:44;8.30;;;2.70;;
25922;SDS011;13725;51.170;4.442;2024-03-17T12:10:12;7.68;;;2.83;;
25922;SDS011;13725;51.170;4.442;2024-03-17T12:12:39;11.55;;;2.50;;
25922;SDS011;13725;51.170;4.442;2024-03-17T12:15:18;6.25;;;2.38;;
25922;SDS011;13725;51.170;4.442;2024-03-17T12:17:51;5.40;;;2.28;;
25922;SDS011;13725;51.170;4.442;2024-03-17T12:20:18;6.97;;;2.22;;
25922;SDS011;13725;51.170;4.442;2024-03-17T12:22:45;5.32;;;2.40;;
25922;SDS011;13725;51.170;4.442;2024-03-17T12:25:19;8.27;;;2.20;;
25922;SDS011;13725;51.170;4.442;2024-03-17T12:27:46;12.15;;;2.80;;
25922;SDS011;13725;51.170;4.442;2024-03-17T12:30:13;5.10;;;2.08;;
25922;SDS011;13725;51.170;4.442;2024-03-17T12:32:40;8.98;;;2.60;;
25922;SDS011;13725;51.170;4.442;2024-03-17T12:35:12;6.18;;;2.47;;
25922;SDS011;13725;51.170;4.442;2024-03-17T12:37:40;9.43;;;2.65;;
25922;SDS011;13725;51.170;4.442;2024-03-17T12:40:17;6.35;;;2.28;;
25922;SDS011;13725;51.170;4.442;2024-03-17T12:42:47;12.05;;;2.47;;
25922;SDS011;13725;51.170;4.442;2024-03-17T12:45:18;8.27;;;2.38;;
25922;SDS011;13725;51.170;4.442;2024-03-17T12:47:46;5.05;;;1.80;;
25922;SDS011;13725;51.170;4.442;2024-03-17T12:50:13;6.05;;;2.10;;
25922;SDS011;13725;51.170;4.442;2024-03-17T12:52:51;5.95;;;2.03;;
25922;SDS011;13725;51.170;4.442;2024-03-17T12:55:18;4.53;;;2.17;;
25922;SDS011;13725;51.170;4.442;2024-03-17T12:58:14;12.40;;;2.90;;
25922;SDS011;13725;51.170;4.442;2024-03-17T13:03:26;6.47;;;2.75;;
25922;SDS011;13725;51.170;4.442;2024-03-17T13:06:05;4.20;;;1.58;;
25922;SDS011;13725;51.170;4.442;2024-03-17T13:08:32;4.88;;;2.22;;
25922;SDS011;13725;51.170;4.442;2024-03-17T13:10:58;4.20;;;2.08;;
25922;SDS011;13725;51.170;4.442;2024-03-17T13:13:24;7.85;;;2.00;;
25922;SDS011;13725;51.170;4.442;2024-03-17T13:15:51;4.97;;;2.10;;
25922;SDS011;13725;51.170;4.442;2024-03-17T13:18:17;8.40;;;1.73;;
25922;SDS011;13725;51.170;4.442;2024-03-17T13:20:48;8.18;;;2.40;;
25922;SDS011;13725;51.170;4.442;2024-03-17T13:23:23;5.60;;;1.90;;
25922;SDS011;13725;51.170;4.442;2024-03-17T13:25:49;7.07;;;2.40;;
25922;SDS011;13725;51.170;4.442;2024-03-17T13:28:16;6.97;;;1.90;;
25922;SDS011;13725;51.170;4.442;2024-03-17T13:30:41;5.78;;;1.77;;
25922;SDS011;13725;51.170;4.442;2024-03-17T13:33:08;8.52;;;1.70;;
25922;SDS011;13725;51.170;4.442;2024-03-17T13:35:36;5.03;;;1.60;;
25922;SDS011;13725;51.170;4.442;2024-03-17T13:38:04;4.90;;;1.58;;
25922;SDS011;13725;51.170;4.442;2024-03-17T13:40:34;5.65;;;1.40;;
25922;SDS011;13725;51.170;4.442;2024-03-17T13:43:00;6.85;;;1.50;;
25922;SDS011;13725;51.170;4.442;2024-03-17T13:45:31;8.93;;;1.70;;
25922;SDS011;13725;51.170;4.442;2024-03-17T13:48:06;7.57;;;1.40;;
25922;SDS011;13725;51.170;4.442;2024-03-17T13:50:41;4.22;;;1.35;;
25922;SDS011;13725;51.170;4.442;2024-03-17T13:53:12;4.10;;;1.55;;
25922;SDS011;13725;51.170;4.442;2024-03-17T13:55:38;5.93;;;1.55;;
25922;SDS011;13725;51.170;4.442;2024-03-17T13:58:04;6.22;;;1.80;;
25922;SDS011;13725;51.170;4.442;2024-03-17T14:00:30;6.90;;;1.60;;
25922;SDS011;13725;51.170;4.442;2024-03-17T14:02:56;4.18;;;1.73;;
25922;SDS011;13725;51.170;4.442;2024-03-17T14:05:24;5.10;;;1.80;;
25922;SDS011;13725;51.170;4.442;2024-03-17T14:07:53;4.45;;;1.70;;
25922;SDS011;13725;51.170;4.442;2024-03-17T14:10:22;6.00;;;1.77;;
25922;SDS011;13725;51.170;4.442;2024-03-17T14:12:49;7.05;;;1.90;;
25922;SDS011;13725;51.170;4.442;2024-03-17T14:15:15;3.38;;;1.50;;
25922;SDS011;13725;51.170;4.442;2024-03-17T14:17:42;8.18;;;2.45;;
25922;SDS011;13725;51.170;4.442;2024-03-17T14:20:09;6.57;;;2.10;;
25922;SDS011;13725;51.170;4.442;2024-03-17T14:22:36;6.68;;;2.15;;
25922;SDS011;13725;51.170;4.442;2024-03-17T14:25:03;8.63;;;2.25;;
25922;SDS011;13725;51.170;4.442;2024-03-17T14:27:35;8.77;;;2.45;;
25922;SDS011;13725;51.170;4.442;2024-03-17T14:30:01;3.55;;;2.00;;
25922;SDS011;13725;51.170;4.442;2024-03-17T14:32:29;6.65;;;2.78;;
25922;SDS011;13725;51.170;4.442;2024-03-17T14:34:55;5.55;;;2.25;;
25922;SDS011;13725;51.170;4.442;2024-03-17T14:37:21;4.82;;;1.85;;
25922;SDS011;13725;51.170;4.442;2024-03-17T14:39:48;5.88;;;2.03;;
25922;SDS011;13725;51.170;4.442;2024-03-17T14:42:16;7.88;;;2.38;;
25922;SDS011;13725;51.170;4.442;2024-03-17T14:44:42;4.00;;;1.98;;
25922;SDS011;13725;51.170;4.442;2024-03-17T14:47:08;5.70;;;2.10;;
25922;SDS011;13725;51.170;4.442;2024-03-17T14:49:36;4.53;;;2.58;;
25922;SDS011;13725;51.170;4.442;2024-03-17T14:52:01;5.40;;;1.73;;
25922;SDS011;13725;51.170;4.442;2024-03-17T14:54:28;7.15;;;1.85;;
25922;SDS011;13725;51.170;4.442;2024-03-17T14:56:53;9.10;;;2.97;;
25922;SDS011;13725;51.170;4.442;2024-03-17T14:59:19;6.38;;;2.63;;
25922;SDS011;13725;51.170;4.442;2024-03-17T15:01:45;8.77;;;1.73;;
25922;SDS011;13725;51.170;4.442;2024-03-17T15:04:12;5.45;;;2.30;;
25922;SDS011;13725;51.170;4.442;2024-03-17T15:06:38;6.45;;;1.98;;
25922;SDS011;13725;51.170;4.442;2024-03-17T15:09:05;6.05;;;1.98;;
25922;SDS011;13725;51.170;4.442;2024-03-17T15:11:31;5.78;;;2.22;;